Holywood, United Kingdom
Current Conditions -  °F | °C
As of 9:50 PM on Friday 21 Nov 2014 (Local Time) from EGAC Reporting Station
Moderate Rain Moderate Rain  
Wind Chill: 50°   Ceiling: 4500
Heat Index: 50°   Visibility: 6mi
Dew Point: 50°   Wind: 15mph
Humidity: 100%   Direction: 130°SE
Pressure: 29.65"   Gusts: 26mph
Location:  54.64°N, 5.82°W
Report Text: EGAC 212150Z 13013G23KT 9999 RA FEW005 SCT014 BKN045 10/10 Q1004
Loading
Personal Weather Stations






























Interactive Weather Map New forecast layout! Learn more

10-Day Weather Forecast

Advertisements
Track Severe Weather on mobile